PWSweather.com
Personal Weather Stations
Station Observations
PICKERING
North Yorkshire, PickeringGB

North YorkshirePickeringGB

Lat: 54.2494, Lon: -0.7725

Elevation: 192

Station Type: Oregon Scientific WMR100

http://www.yorkshirewalker.co.uk/weather/

Latest ConditionsUpdated 3:00:00 PM GMT Thursday, Nov 14, 2019
Currently Today's Max Today's Min Today's Average
Temperature 42.3°F5.7°C 44.1°F6.7°C 35.2°F1.8°C 40.4°F4.7°C
Dew Point 35.6°F2.0°C 37.4°F3.0°C 32.0°F0.0°C 35.0°F1.7°C
Winds 12.5 mph NE20.1 kmh NE 13.7 mph -22.0 kmh - - 7.9 mph 12.7 kmh
Wind Gusts 17.4 mph28.0 kmh 22.4 mph36.0 kmh - -
Humidity 76% 87% 68% 80%
Pressure 29.56 in1001.0 mb 29.56 in1001.0 mb 29.33 in993.2 mb -
Hour Temp Dew Point Humidity Winds Wind Gusts Pressure Precip Precip Rate Daily Precip Total
03:00 PM 42.3°F5.7°C 35.6°F2.0°C 76% 12.5 mph NE20.1 kmh NE 17.4 mph28.0 kmh 29.56 in1001.0 mb 0.00 in0.0 mm 0.00 in0.0 mm 0.00 in0.0 mm
02:55 PM 42.1°F5.6°C 35.6°F2.0°C 76% 12.8 mph NE20.6 kmh NE 17.4 mph28.0 kmh 29.56 in1001.0 mb 0.00 in0.0 mm 0.00 in0.0 mm 0.00 in0.0 mm
02:50 PM 42.1°F5.6°C 35.6°F2.0°C 75% 10.7 mph NE17.2 kmh NE 16.6 mph26.7 kmh 29.56 in1001.0 mb 0.00 in0.0 mm 0.00 in0.0 mm 0.00 in0.0 mm
02:45 PM 42.1°F5.6°C 35.6°F2.0°C 75% 10.1 mph NE16.3 kmh NE 15.4 mph24.8 kmh 29.56 in1001.0 mb 0.00 in0.0 mm 0.00 in0.0 mm 0.00 in0.0 mm
02:40 PM 42.3°F5.7°C 35.6°F2.0°C 74% 10.3 mph NNE16.6 kmh NNE 14.8 mph23.8 kmh 29.56 in1001.0 mb 0.00 in0.0 mm 0.00 in0.0 mm 0.00 in0.0 mm
02:35 PM 42.6°F5.9°C 35.6°F2.0°C 73% 11.7 mph NE18.8 kmh NE 17.7 mph28.5 kmh 29.56 in1001.0 mb 0.00 in0.0 mm 0.00 in0.0 mm 0.00 in0.0 mm
02:30 PM 43.0°F6.1°C 35.6°F2.0°C 72% 12.4 mph NE20.0 kmh NE 17.7 mph28.5 kmh 29.56 in1001.0 mb 0.00 in0.0 mm 0.00 in0.0 mm 0.00 in0.0 mm
02:25 PM 43.5°F6.4°C 33.8°F1.0°C 70% 11.4 mph NE18.3 kmh NE 17.2 mph27.7 kmh 29.56 in1001.0 mb 0.00 in0.0 mm 0.00 in0.0 mm 0.00 in0.0 mm
02:20 PM 43.5°F6.4°C 33.8°F1.0°C 70% 11.4 mph NE18.3 kmh NE 17.2 mph27.7 kmh 29.56 in1001.0 mb 0.00 in0.0 mm 0.00 in0.0 mm 0.00 in0.0 mm
02:15 PM 43.5°F6.4°C 35.6°F2.0°C 71% 10.1 mph NE16.3 kmh NE 13.0 mph20.9 kmh 29.56 in1001.0 mb 0.00 in0.0 mm 0.00 in0.0 mm 0.00 in0.0 mm
02:10 PM 43.5°F6.4°C 35.6°F2.0°C 71% 10.4 mph NE16.7 kmh NE 13.0 mph20.9 kmh 29.53 in1000.0 mb 0.00 in0.0 mm 0.00 in0.0 mm 0.00 in0.0 mm
02:05 PM 43.5°F6.4°C 35.6°F2.0°C 71% 9.7 mph NNE15.6 kmh NNE 13.0 mph20.9 kmh 29.53 in1000.0 mb 0.00 in0.0 mm 0.00 in0.0 mm 0.00 in0.0 mm
02:00 PM 43.5°F6.4°C 35.6°F2.0°C 71% 8.4 mph NE13.5 kmh NE 15.4 mph24.8 kmh 29.53 in1000.0 mb 0.00 in0.0 mm 0.00 in0.0 mm 0.00 in0.0 mm
01:55 PM 43.5°F6.4°C 35.6°F2.0°C 71% 11.5 mph NNE18.5 kmh NNE 16.6 mph26.7 kmh 29.53 in1000.0 mb 0.00 in0.0 mm 0.00 in0.0 mm 0.00 in0.0 mm
01:50 PM 43.5°F6.4°C 35.6°F2.0°C 71% 13.6 mph NNE21.9 kmh NNE 16.6 mph26.7 kmh 29.53 in1000.0 mb 0.00 in0.0 mm 0.00 in0.0 mm 0.00 in0.0 mm
01:45 PM 43.7°F6.5°C 35.6°F2.0°C 71% 11.9 mph NE19.2 kmh NE 17.0 mph27.4 kmh 29.53 in1000.0 mb 0.00 in0.0 mm 0.00 in0.0 mm 0.00 in0.0 mm
01:40 PM 43.7°F6.5°C 35.6°F2.0°C 70% 10.4 mph NNE16.7 kmh NNE 17.0 mph27.4 kmh 29.53 in1000.0 mb 0.00 in0.0 mm 0.00 in0.0 mm 0.00 in0.0 mm
01:35 PM 44.1°F6.7°C 33.8°F1.0°C 69% 10.8 mph NNE17.4 kmh NNE 13.0 mph20.9 kmh 29.53 in1000.0 mb 0.00 in0.0 mm 0.00 in0.0 mm 0.00 in0.0 mm
01:30 PM 43.9°F6.6°C 33.8°F1.0°C 69% 11.0 mph NE17.7 kmh NE 15.9 mph25.6 kmh 29.53 in1000.0 mb 0.00 in0.0 mm 0.00 in0.0 mm 0.00 in0.0 mm
01:25 PM 43.9°F6.6°C 33.8°F1.0°C 69% 11.6 mph NE18.7 kmh NE 17.4 mph28.0 kmh 29.53 in1000.0 mb 0.00 in0.0 mm 0.00 in0.0 mm 0.00 in0.0 mm
01:20 PM 44.1°F6.7°C 33.8°F1.0°C 69% 11.7 mph NE18.8 kmh NE 17.4 mph28.0 kmh 29.53 in1000.0 mb 0.00 in0.0 mm 0.00 in0.0 mm 0.00 in0.0 mm
01:15 PM 43.9°F6.6°C 33.8°F1.0°C 69% 10.4 mph NE16.7 kmh NE 17.2 mph27.7 kmh 29.53 in1000.0 mb 0.00 in0.0 mm 0.00 in0.0 mm 0.00 in0.0 mm
01:10 PM 43.9°F6.6°C 33.8°F1.0°C 69% 10.4 mph NE16.7 kmh NE 17.2 mph27.7 kmh 29.53 in1000.0 mb 0.00 in0.0 mm 0.00 in0.0 mm 0.00 in0.0 mm
01:05 PM 43.9°F6.6°C 33.8°F1.0°C 69% 10.6 mph NE17.1 kmh NE 14.5 mph23.3 kmh 29.53 in1000.0 mb 0.00 in0.0 mm 0.00 in0.0 mm 0.00 in0.0 mm
01:00 PM 43.9°F6.6°C 33.8°F1.0°C 68% 10.9 mph NE17.5 kmh NE 16.3 mph26.2 kmh 29.53 in1000.0 mb 0.00 in0.0 mm 0.00 in0.0 mm 0.00 in0.0 mm
12:55 PM 43.7°F6.5°C 33.8°F1.0°C 69% 11.7 mph NE18.8 kmh NE 16.8 mph27.0 kmh 29.53 in1000.0 mb 0.00 in0.0 mm 0.00 in0.0 mm 0.00 in0.0 mm
12:50 PM 43.9°F6.6°C 33.8°F1.0°C 69% 12.8 mph NE20.6 kmh NE 16.8 mph27.0 kmh 29.53 in1000.0 mb 0.00 in0.0 mm 0.00 in0.0 mm 0.00 in0.0 mm
12:45 PM 43.9°F6.6°C 33.8°F1.0°C 69% 11.6 mph NE18.7 kmh NE 16.8 mph27.0 kmh 29.53 in1000.0 mb 0.00 in0.0 mm 0.00 in0.0 mm 0.00 in0.0 mm
12:40 PM 43.9°F6.6°C 33.8°F1.0°C 69% 10.7 mph NE17.2 kmh NE 14.8 mph23.8 kmh 29.53 in1000.0 mb 0.00 in0.0 mm 0.00 in0.0 mm 0.00 in0.0 mm
12:35 PM 43.9°F6.6°C 35.6°F2.0°C 70% 10.4 mph NE16.7 kmh NE 14.3 mph23.0 kmh 29.53 in1000.0 mb 0.00 in0.0 mm 0.00 in0.0 mm 0.00 in0.0 mm
12:30 PM 44.1°F6.7°C 35.6°F2.0°C 70% 11.4 mph NE18.3 kmh NE 17.0 mph27.4 kmh 29.53 in1000.0 mb 0.00 in0.0 mm 0.00 in0.0 mm 0.00 in0.0 mm
12:25 PM 44.1°F6.7°C 35.6°F2.0°C 70% 12.7 mph NNE20.4 kmh NNE 17.0 mph27.4 kmh 29.53 in1000.0 mb 0.00 in0.0 mm 0.00 in0.0 mm 0.00 in0.0 mm
12:20 PM 43.9°F6.6°C 35.6°F2.0°C 70% 10.8 mph NE17.4 kmh NE 13.4 mph21.6 kmh 29.53 in1000.0 mb 0.00 in0.0 mm 0.00 in0.0 mm 0.00 in0.0 mm
12:15 PM 44.1°F6.7°C 35.6°F2.0°C 70% 12.0 mph NE19.3 kmh NE 17.4 mph28.0 kmh 29.53 in1000.0 mb 0.00 in0.0 mm 0.00 in0.0 mm 0.00 in0.0 mm
12:10 PM 43.9°F6.6°C 35.6°F2.0°C 70% 12.1 mph NNE19.5 kmh NNE 17.4 mph28.0 kmh 29.53 in1000.0 mb 0.00 in0.0 mm 0.00 in0.0 mm 0.00 in0.0 mm
12:05 PM 43.9°F6.6°C 35.6°F2.0°C 70% 11.8 mph NNE19.0 kmh NNE 14.8 mph23.8 kmh 29.53 in1000.0 mb 0.00 in0.0 mm 0.00 in0.0 mm 0.00 in0.0 mm
12:00 PM 43.9°F6.6°C 35.6°F2.0°C 70% 12.4 mph NNE20.0 kmh NNE 16.6 mph26.7 kmh 29.53 in1000.0 mb 0.00 in0.0 mm 0.00 in0.0 mm 0.00 in0.0 mm
11:55 AM 44.1°F6.7°C 35.6°F2.0°C 71% 12.1 mph NNE19.5 kmh NNE 16.6 mph26.7 kmh 29.53 in1000.0 mb 0.00 in0.0 mm 0.00 in0.0 mm 0.00 in0.0 mm
11:50 AM 44.1°F6.7°C 35.6°F2.0°C 72% 12.1 mph NE19.5 kmh NE 15.2 mph24.5 kmh 29.53 in1000.0 mb 0.00 in0.0 mm 0.00 in0.0 mm 0.00 in0.0 mm
11:45 AM 44.1°F6.7°C 35.6°F2.0°C 72% 12.7 mph NE20.4 kmh NE 16.8 mph27.0 kmh 29.53 in1000.0 mb 0.00 in0.0 mm 0.00 in0.0 mm 0.00 in0.0 mm
11:40 AM 44.1°F6.7°C 35.6°F2.0°C 72% 12.6 mph NNE20.3 kmh NNE 16.8 mph27.0 kmh 29.53 in1000.0 mb 0.00 in0.0 mm 0.00 in0.0 mm 0.00 in0.0 mm
11:35 AM 44.1°F6.7°C 35.6°F2.0°C 73% 12.5 mph NE20.1 kmh NE 19.9 mph32.0 kmh 29.53 in1000.0 mb 0.00 in0.0 mm 0.00 in0.0 mm 0.00 in0.0 mm
11:30 AM 44.1°F6.7°C 35.6°F2.0°C 73% 13.0 mph NE20.9 kmh NE 19.9 mph32.0 kmh 29.53 in1000.0 mb 0.00 in0.0 mm 0.00 in0.0 mm 0.00 in0.0 mm
11:25 AM 44.1°F6.7°C 35.6°F2.0°C 73% 11.5 mph NNE18.5 kmh NNE 19.9 mph32.0 kmh 29.50 in999.0 mb 0.00 in0.0 mm 0.00 in0.0 mm 0.00 in0.0 mm
11:20 AM 44.1°F6.7°C 35.6°F2.0°C 73% 12.4 mph NE20.0 kmh NE 22.4 mph36.0 kmh 29.50 in999.0 mb 0.00 in0.0 mm 0.00 in0.0 mm 0.00 in0.0 mm
11:15 AM 44.1°F6.7°C 35.6°F2.0°C 73% 13.4 mph NE21.6 kmh NE 22.4 mph36.0 kmh 29.50 in999.0 mb 0.00 in0.0 mm 0.00 in0.0 mm 0.00 in0.0 mm
11:10 AM 44.1°F6.7°C 35.6°F2.0°C 73% 12.0 mph NE19.3 kmh NE 15.4 mph24.8 kmh 29.50 in999.0 mb 0.00 in0.0 mm 0.00 in0.0 mm 0.00 in0.0 mm
11:05 AM 43.9°F6.6°C 37.4°F3.0°C 74% 11.8 mph NNE19.0 kmh NNE 17.2 mph27.7 kmh 29.50 in999.0 mb 0.00 in0.0 mm 0.00 in0.0 mm 0.00 in0.0 mm
11:00 AM 43.9°F6.6°C 37.4°F3.0°C 75% 13.4 mph NE21.6 kmh NE 19.5 mph31.4 kmh 29.50 in999.0 mb 0.00 in0.0 mm 0.00 in0.0 mm 0.00 in0.0 mm
10:55 AM 43.9°F6.6°C 37.4°F3.0°C 75% 13.7 mph NE22.0 kmh NE 19.5 mph31.4 kmh 29.50 in999.0 mb 0.00 in0.0 mm 0.00 in0.0 mm 0.00 in0.0 mm
10:50 AM 43.7°F6.5°C 37.4°F3.0°C 75% 11.9 mph NNE19.2 kmh NNE 17.4 mph28.0 kmh 29.50 in999.0 mb 0.00 in0.0 mm 0.00 in0.0 mm 0.00 in0.0 mm
10:45 AM 43.7°F6.5°C 37.4°F3.0°C 76% 11.0 mph NE17.7 kmh NE 17.4 mph28.0 kmh 29.50 in999.0 mb 0.00 in0.0 mm 0.00 in0.0 mm 0.00 in0.0 mm
10:40 AM 43.7°F6.5°C 37.4°F3.0°C 76% 11.3 mph NE18.2 kmh NE 13.2 mph21.2 kmh 29.50 in999.0 mb 0.00 in0.0 mm 0.00 in0.0 mm 0.00 in0.0 mm
10:35 AM 43.7°F6.5°C 37.4°F3.0°C 76% 13.7 mph NE22.0 kmh NE 19.0 mph30.6 kmh 29.50 in999.0 mb 0.00 in0.0 mm 0.00 in0.0 mm 0.00 in0.0 mm
10:30 AM 43.7°F6.5°C 37.4°F3.0°C 76% 11.8 mph NE19.0 kmh NE 19.0 mph30.6 kmh 29.50 in999.0 mb 0.00 in0.0 mm 0.00 in0.0 mm 0.00 in0.0 mm
10:25 AM 43.5°F6.4°C 37.4°F3.0°C 77% 9.9 mph NE15.9 kmh NE 17.0 mph27.4 kmh 29.50 in999.0 mb 0.00 in0.0 mm 0.00 in0.0 mm 0.00 in0.0 mm
10:20 AM 43.3°F6.3°C 37.4°F3.0°C 77% 10.3 mph NNE16.6 kmh NNE 15.4 mph24.8 kmh 29.50 in999.0 mb 0.00 in0.0 mm 0.00 in0.0 mm 0.00 in0.0 mm
10:15 AM 43.2°F6.2°C 37.4°F3.0°C 77% 9.8 mph NE15.8 kmh NE 15.2 mph24.5 kmh 29.50 in999.0 mb 0.00 in0.0 mm 0.00 in0.0 mm 0.00 in0.0 mm
10:10 AM 43.2°F6.2°C 37.4°F3.0°C 77% 8.3 mph NE13.4 kmh NE 10.1 mph16.3 kmh 29.50 in999.0 mb 0.00 in0.0 mm 0.00 in0.0 mm 0.00 in0.0 mm
10:05 AM 43.0°F6.1°C 37.4°F3.0°C 78% 9.2 mph NNE14.8 kmh NNE 13.4 mph21.6 kmh 29.50 in999.0 mb 0.00 in0.0 mm 0.00 in0.0 mm 0.00 in0.0 mm
10:00 AM 42.8°F6.0°C 37.4°F3.0°C 78% 11.3 mph NNE18.2 kmh NNE 16.8 mph27.0 kmh 29.50 in999.0 mb 0.00 in0.0 mm 0.00 in0.0 mm 0.00 in0.0 mm
09:55 AM 42.8°F6.0°C 37.4°F3.0°C 79% 10.9 mph NNE17.5 kmh NNE 16.8 mph27.0 kmh 29.50 in999.0 mb 0.00 in0.0 mm 0.00 in0.0 mm 0.00 in0.0 mm
09:50 AM 42.6°F5.9°C 37.4°F3.0°C 79% 10.5 mph NE16.9 kmh NE 14.3 mph23.0 kmh 29.50 in999.0 mb 0.00 in0.0 mm 0.00 in0.0 mm 0.00 in0.0 mm
09:45 AM 42.3°F5.7°C 37.4°F3.0°C 79% 11.1 mph NE17.9 kmh NE 14.3 mph23.0 kmh 29.50 in999.0 mb 0.00 in0.0 mm 0.00 in0.0 mm 0.00 in0.0 mm
09:40 AM 42.3°F5.7°C 37.4°F3.0°C 79% 10.5 mph NE16.9 kmh NE 14.3 mph23.0 kmh 29.50 in999.0 mb 0.00 in0.0 mm 0.00 in0.0 mm 0.00 in0.0 mm
09:35 AM 42.4°F5.8°C 37.4°F3.0°C 79% 10.3 mph NE16.6 kmh NE 14.3 mph23.0 kmh 29.50 in999.0 mb 0.00 in0.0 mm 0.00 in0.0 mm 0.00 in0.0 mm
09:30 AM 42.6°F5.9°C 37.4°F3.0°C 79% 9.8 mph NE15.8 kmh NE 12.5 mph20.1 kmh 29.50 in999.0 mb 0.00 in0.0 mm 0.00 in0.0 mm 0.00 in0.0 mm
09:25 AM 42.6°F5.9°C 37.4°F3.0°C 79% 10.3 mph NE16.6 kmh NE 12.5 mph20.1 kmh 29.50 in999.0 mb 0.00 in0.0 mm 0.00 in0.0 mm 0.00 in0.0 mm
09:20 AM 42.4°F5.8°C 37.4°F3.0°C 79% 9.9 mph NE15.9 kmh NE 12.8 mph20.6 kmh 29.50 in999.0 mb 0.00 in0.0 mm 0.00 in0.0 mm 0.00 in0.0 mm
09:15 AM 42.3°F5.7°C 37.4°F3.0°C 79% 10.3 mph NE16.6 kmh NE 14.3 mph23.0 kmh 29.50 in999.0 mb 0.00 in0.0 mm 0.00 in0.0 mm 0.00 in0.0 mm
09:10 AM 42.1°F5.6°C 37.4°F3.0°C 80% 10.8 mph NE17.4 kmh NE 14.8 mph23.8 kmh 29.50 in999.0 mb 0.00 in0.0 mm 0.00 in0.0 mm 0.00 in0.0 mm
09:05 AM 42.1°F5.6°C 37.4°F3.0°C 79% 10.3 mph NE16.6 kmh NE 14.8 mph23.8 kmh 29.50 in999.0 mb 0.00 in0.0 mm 0.00 in0.0 mm 0.00 in0.0 mm
09:00 AM 42.1°F5.6°C 37.4°F3.0°C 79% 10.7 mph NE17.2 kmh NE 13.0 mph20.9 kmh 29.50 in999.0 mb 0.00 in0.0 mm 0.00 in0.0 mm 0.00 in0.0 mm
08:55 AM 42.1°F5.6°C 37.4°F3.0°C 80% 9.4 mph NE15.1 kmh NE 12.1 mph19.5 kmh 29.47 in998.0 mb 0.00 in0.0 mm 0.00 in0.0 mm 0.00 in0.0 mm
08:50 AM 42.1°F5.6°C 37.4°F3.0°C 80% 8.6 mph NE13.8 kmh NE 11.9 mph19.2 kmh 29.47 in998.0 mb 0.00 in0.0 mm 0.00 in0.0 mm 0.00 in0.0 mm
08:45 AM 41.7°F5.4°C 37.4°F3.0°C 80% 7.0 mph NE11.3 kmh NE 11.9 mph19.2 kmh 29.47 in998.0 mb 0.00 in0.0 mm 0.00 in0.0 mm 0.00 in0.0 mm
08:40 AM 41.5°F5.3°C 37.4°F3.0°C 80% 6.1 mph NE9.8 kmh NE 9.8 mph15.8 kmh 29.47 in998.0 mb 0.00 in0.0 mm 0.00 in0.0 mm 0.00 in0.0 mm
08:35 AM 41.5°F5.3°C 37.4°F3.0°C 80% 7.6 mph NE12.2 kmh NE 12.8 mph20.6 kmh 29.47 in998.0 mb 0.00 in0.0 mm 0.00 in0.0 mm 0.00 in0.0 mm
08:30 AM 41.2°F5.1°C 35.6°F2.0°C 80% 7.3 mph NE11.7 kmh NE 12.8 mph20.6 kmh 29.47 in998.0 mb 0.00 in0.0 mm 0.00 in0.0 mm 0.00 in0.0 mm
08:25 AM 41.2°F5.1°C 35.6°F2.0°C 80% 7.1 mph NE11.4 kmh NE 8.7 mph14.0 kmh 29.47 in998.0 mb 0.00 in0.0 mm 0.00 in0.0 mm 0.00 in0.0 mm
08:20 AM 41.2°F5.1°C 35.6°F2.0°C 80% 8.7 mph NE14.0 kmh NE 14.8 mph23.8 kmh 29.47 in998.0 mb 0.00 in0.0 mm 0.00 in0.0 mm 0.00 in0.0 mm
08:15 AM 41.2°F5.1°C 35.6°F2.0°C 80% 10.9 mph NE17.5 kmh NE 16.1 mph25.9 kmh 29.47 in998.0 mb 0.00 in0.0 mm 0.00 in0.0 mm 0.00 in0.0 mm
08:10 AM 41.2°F5.1°C 35.6°F2.0°C 80% 10.1 mph NE16.3 kmh NE 16.1 mph25.9 kmh 29.47 in998.0 mb 0.00 in0.0 mm 0.00 in0.0 mm 0.00 in0.0 mm
08:05 AM 41.0°F5.0°C 35.6°F2.0°C 81% 7.5 mph NE12.1 kmh NE 13.0 mph20.9 kmh 29.47 in998.0 mb 0.00 in0.0 mm 0.00 in0.0 mm 0.00 in0.0 mm
08:00 AM 40.6°F4.8°C 35.6°F2.0°C 81% 6.3 mph NNE10.1 kmh NNE 8.7 mph14.0 kmh 29.47 in998.0 mb 0.00 in0.0 mm 0.00 in0.0 mm 0.00 in0.0 mm
07:55 AM 40.6°F4.8°C 35.6°F2.0°C 81% 6.8 mph NNE10.9 kmh NNE 8.7 mph14.0 kmh 29.45 in997.3 mb 0.00 in0.0 mm 0.00 in0.0 mm 0.00 in0.0 mm
07:50 AM 40.5°F4.7°C 35.6°F2.0°C 81% 7.3 mph NE11.7 kmh NE 12.8 mph20.6 kmh 29.45 in997.3 mb 0.00 in0.0 mm 0.00 in0.0 mm 0.00 in0.0 mm
07:45 AM 40.1°F4.5°C 35.6°F2.0°C 81% 6.4 mph NE10.3 kmh NE 12.8 mph20.6 kmh 29.45 in997.3 mb 0.00 in0.0 mm 0.00 in0.0 mm 0.00 in0.0 mm
07:40 AM 39.9°F4.4°C 35.6°F2.0°C 82% 5.8 mph NE9.3 kmh NE 7.8 mph12.6 kmh 29.45 in997.3 mb 0.00 in0.0 mm 0.00 in0.0 mm 0.00 in0.0 mm
07:35 AM 39.7°F4.3°C 35.6°F2.0°C 82% 5.9 mph NE9.5 kmh NE 7.8 mph12.6 kmh 29.45 in997.3 mb 0.00 in0.0 mm 0.00 in0.0 mm 0.00 in0.0 mm
07:30 AM 39.7°F4.3°C 35.6°F2.0°C 82% 6.2 mph NE10.0 kmh NE 7.8 mph12.6 kmh 29.45 in997.3 mb 0.00 in0.0 mm 0.00 in0.0 mm 0.00 in0.0 mm
07:25 AM 39.6°F4.2°C 35.6°F2.0°C 82% 6.3 mph NE10.1 kmh NE 7.8 mph12.6 kmh 29.45 in997.3 mb 0.00 in0.0 mm 0.00 in0.0 mm 0.00 in0.0 mm
07:20 AM 39.6°F4.2°C 35.6°F2.0°C 82% 5.5 mph NNE8.9 kmh NNE 7.8 mph12.6 kmh 29.45 in997.3 mb 0.00 in0.0 mm 0.00 in0.0 mm 0.00 in0.0 mm
07:15 AM 39.2°F4.0°C 33.8°F1.0°C 82% 4.8 mph NNE7.7 kmh NNE 7.2 mph11.6 kmh 29.45 in997.3 mb 0.00 in0.0 mm 0.00 in0.0 mm 0.00 in0.0 mm
07:10 AM 39.2°F4.0°C 33.8°F1.0°C 82% 4.9 mph NNE7.9 kmh NNE 6.3 mph10.1 kmh 29.45 in997.3 mb 0.00 in0.0 mm 0.00 in0.0 mm 0.00 in0.0 mm
07:05 AM 39.2°F4.0°C 33.8°F1.0°C 82% 5.4 mph NE8.7 kmh NE 8.7 mph14.0 kmh 29.45 in997.3 mb 0.00 in0.0 mm 0.00 in0.0 mm 0.00 in0.0 mm
07:00 AM 39.2°F4.0°C 33.8°F1.0°C 82% 6.3 mph NE10.1 kmh NE 8.7 mph14.0 kmh 29.45 in997.3 mb 0.00 in0.0 mm 0.00 in0.0 mm 0.00 in0.0 mm
06:55 AM 39.2°F4.0°C 33.8°F1.0°C 82% 6.2 mph NE10.0 kmh NE 8.5 mph13.7 kmh 29.41 in995.9 mb 0.00 in0.0 mm 0.00 in0.0 mm 0.00 in0.0 mm
06:50 AM 39.4°F4.1°C 33.8°F1.0°C 82% 5.1 mph NE8.2 kmh NE 6.5 mph10.5 kmh 29.41 in995.9 mb 0.00 in0.0 mm 0.00 in0.0 mm 0.00 in0.0 mm
06:45 AM 39.4°F4.1°C 33.8°F1.0°C 82% 5.6 mph NE9.0 kmh NE 8.5 mph13.7 kmh 29.41 in995.9 mb 0.00 in0.0 mm 0.00 in0.0 mm 0.00 in0.0 mm
06:40 AM 39.4°F4.1°C 33.8°F1.0°C 82% 7.0 mph NE11.3 kmh NE 10.7 mph17.2 kmh 29.41 in995.9 mb 0.00 in0.0 mm 0.00 in0.0 mm 0.00 in0.0 mm
06:35 AM 39.6°F4.2°C 35.6°F2.0°C 82% 7.0 mph NE11.3 kmh NE 10.7 mph17.2 kmh 29.41 in995.9 mb 0.00 in0.0 mm 0.00 in0.0 mm 0.00 in0.0 mm
06:30 AM 39.7°F4.3°C 35.6°F2.0°C 83% 7.1 mph NE11.4 kmh NE 12.3 mph19.8 kmh 29.41 in995.9 mb 0.00 in0.0 mm 0.00 in0.0 mm 0.00 in0.0 mm
06:25 AM 39.9°F4.4°C 35.6°F2.0°C 83% 7.6 mph NE12.2 kmh NE 13.2 mph21.2 kmh 29.41 in995.9 mb 0.00 in0.0 mm 0.00 in0.0 mm 0.00 in0.0 mm
06:20 AM 39.9°F4.4°C 35.6°F2.0°C 83% 8.1 mph NE13.0 kmh NE 13.2 mph21.2 kmh 29.41 in995.9 mb 0.00 in0.0 mm 0.00 in0.0 mm 0.00 in0.0 mm
06:15 AM 39.6°F4.2°C 35.6°F2.0°C 84% 7.1 mph NE11.4 kmh NE 11.0 mph17.7 kmh 29.41 in995.9 mb 0.00 in0.0 mm 0.00 in0.0 mm 0.00 in0.0 mm
06:10 AM 39.6°F4.2°C 35.6°F2.0°C 84% 6.3 mph NE10.1 kmh NE 10.3 mph16.6 kmh 29.41 in995.9 mb 0.00 in0.0 mm 0.00 in0.0 mm 0.00 in0.0 mm
06:05 AM 39.6°F4.2°C 35.6°F2.0°C 84% 7.4 mph NE11.9 kmh NE 11.0 mph17.7 kmh 29.41 in995.9 mb 0.00 in0.0 mm 0.00 in0.0 mm 0.00 in0.0 mm
06:00 AM 39.6°F4.2°C 35.6°F2.0°C 84% 8.2 mph NE13.2 kmh NE 11.0 mph17.7 kmh 29.41 in995.9 mb 0.00 in0.0 mm 0.00 in0.0 mm 0.00 in0.0 mm
05:55 AM 39.6°F4.2°C 35.6°F2.0°C 84% 6.8 mph NE10.9 kmh NE 8.5 mph13.7 kmh 29.41 in995.9 mb 0.00 in0.0 mm 0.00 in0.0 mm 0.00 in0.0 mm
05:50 AM 39.6°F4.2°C 35.6°F2.0°C 84% 6.3 mph NE10.1 kmh NE 8.7 mph14.0 kmh 29.41 in995.9 mb 0.00 in0.0 mm 0.00 in0.0 mm 0.00 in0.0 mm
05:45 AM 39.9°F4.4°C 35.6°F2.0°C 84% 6.6 mph NE10.6 kmh NE 10.3 mph16.6 kmh 29.41 in995.9 mb 0.00 in0.0 mm 0.00 in0.0 mm 0.00 in0.0 mm
05:40 AM 39.9°F4.4°C 35.6°F2.0°C 84% 5.5 mph NE8.9 kmh NE 10.3 mph16.6 kmh 29.39 in995.3 mb 0.00 in0.0 mm 0.00 in0.0 mm 0.00 in0.0 mm
05:35 AM 39.9°F4.4°C 35.6°F2.0°C 84% 5.6 mph NE9.0 kmh NE 10.1 mph16.3 kmh 29.39 in995.3 mb 0.00 in0.0 mm 0.00 in0.0 mm 0.00 in0.0 mm
05:30 AM 39.9°F4.4°C 35.6°F2.0°C 85% 8.0 mph NE12.9 kmh NE 12.5 mph20.1 kmh 29.39 in995.3 mb 0.00 in0.0 mm 0.00 in0.0 mm 0.00 in0.0 mm
05:25 AM 39.9°F4.4°C 35.6°F2.0°C 85% 9.6 mph NE15.4 kmh NE 13.4 mph21.6 kmh 29.39 in995.3 mb 0.00 in0.0 mm 0.00 in0.0 mm 0.00 in0.0 mm
05:20 AM 39.6°F4.2°C 35.6°F2.0°C 85% 8.7 mph NE14.0 kmh NE 13.4 mph21.6 kmh 29.39 in995.3 mb 0.00 in0.0 mm 0.00 in0.0 mm 0.00 in0.0 mm
05:15 AM 39.4°F4.1°C 35.6°F2.0°C 85% 7.2 mph NE11.6 kmh NE 8.5 mph13.7 kmh 29.39 in995.3 mb 0.00 in0.0 mm 0.00 in0.0 mm 0.00 in0.0 mm
05:10 AM 39.2°F4.0°C 35.6°F2.0°C 85% 6.9 mph NE11.1 kmh NE 10.7 mph17.2 kmh 29.39 in995.3 mb 0.00 in0.0 mm 0.00 in0.0 mm 0.00 in0.0 mm
05:05 AM 39.4°F4.1°C 35.6°F2.0°C 85% 7.8 mph NE12.6 kmh NE 10.7 mph17.2 kmh 29.39 in995.3 mb 0.00 in0.0 mm 0.00 in0.0 mm 0.00 in0.0 mm
05:00 AM 39.4°F4.1°C 35.6°F2.0°C 85% 6.6 mph NE10.6 kmh NE 10.1 mph16.3 kmh 29.39 in995.3 mb 0.00 in0.0 mm 0.00 in0.0 mm 0.00 in0.0 mm
04:55 AM 39.7°F4.3°C 35.6°F2.0°C 85% 6.5 mph NE10.5 kmh NE 10.7 mph17.2 kmh 29.39 in995.3 mb 0.00 in0.0 mm 0.00 in0.0 mm 0.00 in0.0 mm
04:50 AM 39.7°F4.3°C 35.6°F2.0°C 85% 8.4 mph NE13.5 kmh NE 11.2 mph18.0 kmh 29.39 in995.3 mb 0.00 in0.0 mm 0.00 in0.0 mm 0.00 in0.0 mm
04:45 AM 39.6°F4.2°C 35.6°F2.0°C 85% 9.2 mph NE14.8 kmh NE 14.5 mph23.3 kmh 29.39 in995.3 mb 0.00 in0.0 mm 0.00 in0.0 mm 0.00 in0.0 mm
04:40 AM 39.6°F4.2°C 35.6°F2.0°C 85% 8.4 mph NE13.5 kmh NE 14.5 mph23.3 kmh 29.39 in995.3 mb 0.00 in0.0 mm 0.00 in0.0 mm 0.00 in0.0 mm
04:35 AM 39.4°F4.1°C 35.6°F2.0°C 85% 8.1 mph NE13.0 kmh NE 12.5 mph20.1 kmh 29.39 in995.3 mb 0.00 in0.0 mm 0.00 in0.0 mm 0.00 in0.0 mm
04:30 AM 39.4°F4.1°C 35.6°F2.0°C 85% 8.4 mph NE13.5 kmh NE 12.5 mph20.1 kmh 29.39 in995.3 mb 0.00 in0.0 mm 0.00 in0.0 mm 0.00 in0.0 mm
04:25 AM 39.2°F4.0°C 35.6°F2.0°C 86% 8.1 mph NNE13.0 kmh NNE 14.3 mph23.0 kmh 29.39 in995.3 mb 0.00 in0.0 mm 0.00 in0.0 mm 0.00 in0.0 mm
04:20 AM 39.2°F4.0°C 35.6°F2.0°C 86% 8.2 mph NNE13.2 kmh NNE 14.3 mph23.0 kmh 29.39 in995.3 mb 0.00 in0.0 mm 0.00 in0.0 mm 0.00 in0.0 mm
04:15 AM 38.5°F3.6°C 35.6°F2.0°C 86% 6.7 mph NE10.8 kmh NE 8.7 mph14.0 kmh 29.39 in995.3 mb 0.00 in0.0 mm 0.00 in0.0 mm 0.00 in0.0 mm
04:10 AM 38.1°F3.4°C 35.6°F2.0°C 87% 6.2 mph NNE10.0 kmh NNE 8.7 mph14.0 kmh 29.36 in994.2 mb 0.00 in0.0 mm 0.00 in0.0 mm 0.00 in0.0 mm
04:05 AM 37.9°F3.3°C 35.6°F2.0°C 87% 5.0 mph NNE8.0 kmh NNE 7.8 mph12.6 kmh 29.36 in994.2 mb 0.00 in0.0 mm 0.00 in0.0 mm 0.00 in0.0 mm
04:00 AM 37.6°F3.1°C 33.8°F1.0°C 87% 2.9 mph N4.7 kmh N 3.8 mph6.1 kmh 29.36 in994.2 mb 0.00 in0.0 mm 0.00 in0.0 mm 0.00 in0.0 mm
03:55 AM 37.6°F3.1°C 33.8°F1.0°C 86% 2.3 mph NNE3.7 kmh NNE 2.9 mph4.7 kmh 29.36 in994.2 mb 0.00 in0.0 mm 0.00 in0.0 mm 0.00 in0.0 mm
03:50 AM 37.9°F3.3°C 35.6°F2.0°C 87% 2.1 mph NE3.4 kmh NE 2.7 mph4.3 kmh 29.36 in994.2 mb 0.00 in0.0 mm 0.00 in0.0 mm 0.00 in0.0 mm
03:45 AM 38.1°F3.4°C 35.6°F2.0°C 87% 2.5 mph NE4.0 kmh NE 3.6 mph5.8 kmh 29.36 in994.2 mb 0.00 in0.0 mm 0.00 in0.0 mm 0.00 in0.0 mm
03:40 AM 38.3°F3.5°C 35.6°F2.0°C 86% 4.0 mph ENE6.4 kmh ENE 6.5 mph10.5 kmh 29.36 in994.2 mb 0.00 in0.0 mm 0.00 in0.0 mm 0.00 in0.0 mm
03:35 AM 38.5°F3.6°C 35.6°F2.0°C 86% 4.7 mph NE7.6 kmh NE 6.5 mph10.5 kmh 29.36 in994.2 mb 0.00 in0.0 mm 0.00 in0.0 mm 0.00 in0.0 mm
03:30 AM 38.3°F3.5°C 35.6°F2.0°C 86% 4.6 mph NE7.4 kmh NE 6.5 mph10.5 kmh 29.36 in994.2 mb 0.00 in0.0 mm 0.00 in0.0 mm 0.00 in0.0 mm
03:25 AM 38.1°F3.4°C 33.8°F1.0°C 86% 4.4 mph NE7.1 kmh NE 6.5 mph10.5 kmh 29.36 in994.2 mb 0.00 in0.0 mm 0.00 in0.0 mm 0.00 in0.0 mm
03:20 AM 38.1°F3.4°C 33.8°F1.0°C 86% 3.7 mph NE6.0 kmh NE 4.3 mph6.9 kmh 29.36 in994.2 mb 0.00 in0.0 mm 0.00 in0.0 mm 0.00 in0.0 mm
03:15 AM 37.9°F3.3°C 33.8°F1.0°C 86% 3.6 mph NE5.8 kmh NE 4.3 mph6.9 kmh 29.36 in994.2 mb 0.00 in0.0 mm 0.00 in0.0 mm 0.00 in0.0 mm
03:10 AM 37.8°F3.2°C 33.8°F1.0°C 86% 4.3 mph NE6.9 kmh NE 7.6 mph12.2 kmh 29.36 in994.2 mb 0.00 in0.0 mm 0.00 in0.0 mm 0.00 in0.0 mm
03:05 AM 37.4°F3.0°C 33.8°F1.0°C 86% 4.5 mph NE7.2 kmh NE 7.6 mph12.2 kmh 29.36 in994.2 mb 0.00 in0.0 mm 0.00 in0.0 mm 0.00 in0.0 mm
03:00 AM 37.0°F2.8°C 33.8°F1.0°C 86% 4.5 mph NE7.2 kmh NE 7.6 mph12.2 kmh 29.36 in994.2 mb 0.00 in0.0 mm 0.00 in0.0 mm 0.00 in0.0 mm
02:55 AM 37.0°F2.8°C 33.8°F1.0°C 86% 3.8 mph NE6.1 kmh NE 4.3 mph6.9 kmh 29.36 in994.2 mb 0.00 in0.0 mm 0.00 in0.0 mm 0.00 in0.0 mm
02:50 AM 37.0°F2.8°C 33.8°F1.0°C 86% 3.8 mph NE6.1 kmh NE 4.5 mph7.2 kmh 29.36 in994.2 mb 0.00 in0.0 mm 0.00 in0.0 mm 0.00 in0.0 mm
02:45 AM 37.0°F2.8°C 33.8°F1.0°C 86% 4.0 mph NE6.4 kmh NE 5.4 mph8.7 kmh 29.36 in994.2 mb 0.00 in0.0 mm 0.00 in0.0 mm 0.00 in0.0 mm
02:40 AM 37.0°F2.8°C 33.8°F1.0°C 86% 3.7 mph NE6.0 kmh NE 5.4 mph8.7 kmh 29.36 in994.2 mb 0.00 in0.0 mm 0.00 in0.0 mm 0.00 in0.0 mm
02:35 AM 37.0°F2.8°C 33.8°F1.0°C 86% 4.0 mph NE6.4 kmh NE 5.8 mph9.3 kmh 29.36 in994.2 mb 0.00 in0.0 mm 0.00 in0.0 mm 0.00 in0.0 mm
02:30 AM 37.0°F2.8°C 33.8°F1.0°C 86% 4.4 mph NE7.1 kmh NE 5.8 mph9.3 kmh 29.36 in994.2 mb 0.00 in0.0 mm 0.00 in0.0 mm 0.00 in0.0 mm
02:25 AM 36.9°F2.7°C 33.8°F1.0°C 86% 4.3 mph NE6.9 kmh NE 5.6 mph9.0 kmh 29.36 in994.2 mb 0.00 in0.0 mm 0.00 in0.0 mm 0.00 in0.0 mm
02:20 AM 36.5°F2.5°C 33.8°F1.0°C 86% 4.6 mph NE7.4 kmh NE 5.8 mph9.3 kmh 29.36 in994.2 mb 0.00 in0.0 mm 0.00 in0.0 mm 0.00 in0.0 mm
02:15 AM 36.1°F2.3°C 33.8°F1.0°C 86% 4.6 mph NE7.4 kmh NE 5.8 mph9.3 kmh 29.36 in994.2 mb 0.00 in0.0 mm 0.00 in0.0 mm 0.00 in0.0 mm
02:10 AM 36.0°F2.2°C 32.0°F0.0°C 86% 4.4 mph NE7.1 kmh NE 5.6 mph9.0 kmh 29.33 in993.2 mb 0.00 in0.0 mm 0.00 in0.0 mm 0.00 in0.0 mm
02:05 AM 36.0°F2.2°C 32.0°F0.0°C 86% 4.7 mph NE7.6 kmh NE 5.6 mph9.0 kmh 29.33 in993.2 mb 0.00 in0.0 mm 0.00 in0.0 mm 0.00 in0.0 mm
02:00 AM 36.0°F2.2°C 32.0°F0.0°C 86% 4.7 mph NE7.6 kmh NE 5.6 mph9.0 kmh 29.33 in993.2 mb 0.00 in0.0 mm 0.00 in0.0 mm 0.00 in0.0 mm
01:55 AM 36.0°F2.2°C 32.0°F0.0°C 86% 5.1 mph NE8.2 kmh NE 6.0 mph9.7 kmh 29.33 in993.2 mb 0.00 in0.0 mm 0.00 in0.0 mm 0.00 in0.0 mm
01:50 AM 36.0°F2.2°C 32.0°F0.0°C 86% 5.2 mph NE8.4 kmh NE 6.3 mph10.1 kmh 29.33 in993.2 mb 0.00 in0.0 mm 0.00 in0.0 mm 0.00 in0.0 mm
01:45 AM 35.6°F2.0°C 32.0°F0.0°C 86% 4.6 mph NE7.4 kmh NE 6.3 mph10.1 kmh 29.33 in993.2 mb 0.00 in0.0 mm 0.00 in0.0 mm 0.00 in0.0 mm
01:40 AM 35.6°F2.0°C 32.0°F0.0°C 86% 4.4 mph NE7.1 kmh NE 6.3 mph10.1 kmh 29.33 in993.2 mb 0.00 in0.0 mm 0.00 in0.0 mm 0.00 in0.0 mm
01:35 AM 35.2°F1.8°C 32.0°F0.0°C 86% 4.1 mph NE6.6 kmh NE 6.3 mph10.1 kmh 29.33 in993.2 mb 0.00 in0.0 mm 0.00 in0.0 mm 0.00 in0.0 mm
01:30 AM 35.2°F1.8°C 32.0°F0.0°C 86% 3.5 mph NE5.6 kmh NE 4.3 mph6.9 kmh 29.33 in993.2 mb 0.00 in0.0 mm 0.00 in0.0 mm 0.00 in0.0 mm
01:25 AM 35.4°F1.9°C 32.0°F0.0°C 86% 3.6 mph NE5.8 kmh NE 4.3 mph6.9 kmh 29.33 in993.2 mb 0.00 in0.0 mm 0.00 in0.0 mm 0.00 in0.0 mm
01:20 AM 35.4°F1.9°C 32.0°F0.0°C 86% 3.8 mph NE6.1 kmh NE 4.9 mph7.9 kmh 29.33 in993.2 mb 0.00 in0.0 mm 0.00 in0.0 mm 0.00 in0.0 mm
01:15 AM 35.6°F2.0°C 32.0°F0.0°C 86% 3.7 mph NE6.0 kmh NE 4.9 mph7.9 kmh 29.33 in993.2 mb 0.00 in0.0 mm 0.00 in0.0 mm 0.00 in0.0 mm
01:10 AM 35.6°F2.0°C 32.0°F0.0°C 85% 3.4 mph NE5.5 kmh NE 4.3 mph6.9 kmh 29.33 in993.2 mb 0.00 in0.0 mm 0.00 in0.0 mm 0.00 in0.0 mm
01:05 AM 35.4°F1.9°C 32.0°F0.0°C 85% 3.6 mph NE5.8 kmh NE 4.7 mph7.6 kmh 29.33 in993.2 mb 0.00 in0.0 mm 0.00 in0.0 mm 0.00 in0.0 mm
01:00 AM 35.4°F1.9°C 32.0°F0.0°C 85% 4.0 mph NNE6.4 kmh NNE 4.7 mph7.6 kmh 29.33 in993.2 mb 0.00 in0.0 mm 0.00 in0.0 mm 0.00 in0.0 mm
12:55 AM 35.6°F2.0°C 32.0°F0.0°C 85% 4.0 mph NE6.4 kmh NE 4.7 mph7.6 kmh 29.33 in993.2 mb 0.00 in0.0 mm 0.00 in0.0 mm 0.00 in0.0 mm
12:50 AM 35.6°F2.0°C 32.0°F0.0°C 85% 3.8 mph NE6.1 kmh NE 4.9 mph7.9 kmh 29.33 in993.2 mb 0.00 in0.0 mm 0.00 in0.0 mm 0.00 in0.0 mm
12:45 AM 35.8°F2.1°C 32.0°F0.0°C 85% 3.9 mph NE6.3 kmh NE 4.9 mph7.9 kmh 29.33 in993.2 mb 0.00 in0.0 mm 0.00 in0.0 mm 0.00 in0.0 mm
12:40 AM 36.0°F2.2°C 32.0°F0.0°C 85% 4.2 mph NE6.8 kmh NE 4.9 mph7.9 kmh 29.33 in993.2 mb 0.00 in0.0 mm 0.00 in0.0 mm 0.00 in0.0 mm
12:35 AM 35.8°F2.1°C 32.0°F0.0°C 85% 4.2 mph NE6.8 kmh NE 4.9 mph7.9 kmh 29.33 in993.2 mb 0.00 in0.0 mm 0.00 in0.0 mm 0.00 in0.0 mm
12:30 AM 36.0°F2.2°C 32.0°F0.0°C 85% 4.0 mph NE6.4 kmh NE 4.9 mph7.9 kmh 29.33 in993.2 mb 0.00 in0.0 mm 0.00 in0.0 mm 0.00 in0.0 mm
12:25 AM 36.0°F2.2°C 32.0°F0.0°C 85% 3.5 mph NE5.6 kmh NE 4.3 mph6.9 kmh 29.33 in993.2 mb 0.00 in0.0 mm 0.00 in0.0 mm 0.00 in0.0 mm
12:20 AM 36.0°F2.2°C 32.0°F0.0°C 85% 3.6 mph NE5.8 kmh NE 4.3 mph6.9 kmh 29.33 in993.2 mb 0.00 in0.0 mm 0.00 in0.0 mm 0.00 in0.0 mm
12:15 AM 36.1°F2.3°C 33.8°F1.0°C 85% 4.0 mph NNE6.4 kmh NNE 4.9 mph7.9 kmh 29.33 in993.2 mb 0.00 in0.0 mm 0.00 in0.0 mm 0.00 in0.0 mm
12:10 AM 36.3°F2.4°C 33.8°F1.0°C 85% 4.1 mph NE6.6 kmh NE 4.9 mph7.9 kmh 29.33 in993.2 mb 0.00 in0.0 mm 0.00 in0.0 mm 0.00 in0.0 mm
12:05 AM 36.3°F2.4°C 33.8°F1.0°C 85% 3.7 mph NE6.0 kmh NE 4.9 mph7.9 kmh 29.33 in993.2 mb 0.00 in0.0 mm 0.00 in0.0 mm 0.00 in0.0 mm
12:00 AM 36.5°F2.5°C 33.8°F1.0°C 85% 3.5 mph NE5.6 kmh NE 4.9 mph7.9 kmh 29.33 in993.2 mb 0.00 in0.0 mm 0.00 in0.0 mm 0.00 in0.0 mm